This is the latest recevied weather packets stored in our database for station/object W5CRT. If no packets are shown the sender has not sent any weather packets the latest 1 day(s).
| Time | Temp. | Humidity | Pressure | Rain* | Wind** | Luminosity | Snow |
|---|---|---|---|---|---|---|---|
| 1836274691 | 25° C | 75% | 1014 hPa | 0 mm | 1.34 m/s, 166° | 0 W/m² | - |
| 1836274543 | 25° C | 75% | 1014 hPa | 0 mm | 0.89 m/s, 118° | 0 W/m² | - |
| 1836274389 | 25° C | 75% | 1013.8 hPa | 0 mm | 0.89 m/s, 126° | 0 W/m² | - |
| 1836274242 | 25° C | 75% | 1014.1 hPa | 0 mm | 0.89 m/s, 147° | 0 W/m² | - |
| 1836274087 | 25.56° C | 74% | 1013.7 hPa | 0 mm | 0.89 m/s, 132° | 0 W/m² | - |
| 1778042866 | 17.22° C | 77% | 1007.5 hPa | 0 mm | 4.92 m/s, 8° | 0 W/m² | - |
| 1778042564 | 17.22° C | 78% | 1007.3 hPa | 0 mm | 1.79 m/s, 23° | 0 W/m² | - |
| 1778042261 | 17.22° C | 77% | 1007.2 hPa | 0 mm | 2.24 m/s, 359° | 0 W/m² | - |
| 1778041958 | 17.22° C | 77% | 1007.3 hPa | 0 mm | 3.58 m/s, 20° | 0 W/m² | - |
| 1778041657 | 17.78° C | 77% | 1007.2 hPa | 0 mm | 2.68 m/s, 32° | 0 W/m² | - |
| 1778041355 | 17.78° C | 77% | 1006.8 hPa | 0 mm | 4.02 m/s, 9° | 0 W/m² | - |
| 1778041053 | 17.78° C | 77% | 1006.6 hPa | 0 mm | 1.79 m/s, 69° | 0 W/m² | - |
| 1778040750 | 18.33° C | 77% | 1006.8 hPa | 0 mm | 2.24 m/s, 352° | 0 W/m² | - |
| 1778040448 | 18.33° C | 76% | 1007 hPa | 0 mm | 1.79 m/s, 343° | 0 W/m² | - |
| 1778040144 | 18.33° C | 76% | 1006.9 hPa | 0 mm | 3.13 m/s, 6° | 0 W/m² | - |
| 1778039841 | 18.89° C | 75% | 1006.9 hPa | 0 mm | 4.47 m/s, 350° | 0 W/m² | - |
| 1778039538 | 18.89° C | 75% | 1006.8 hPa | 0 mm | 4.02 m/s, 333° | 0 W/m² | - |
| 1778039235 | 18.89° C | 75% | 1006.6 hPa | 0 mm | 4.02 m/s, 1° | 0 W/m² | - |
| 1778038932 | 19.44° C | 75% | 1006.5 hPa | 0 mm | 1.79 m/s, 344° | 0 W/m² | - |
| 1778038630 | 19.44° C | 75% | 1006.8 hPa | 0 mm | 3.13 m/s, 0° | 0 W/m² | - |
| 1778038326 | 20° C | 75% | 1006.5 hPa | 0 mm | 2.68 m/s, 351° | 0 W/m² | - |
| 1778038023 | 20° C | 75% | 1006.5 hPa | 0 mm | 3.13 m/s, 346° | 0 W/m² | - |
| 1778037720 | 20° C | 75% | 1006.1 hPa | 0 mm | 1.34 m/s, 345° | 0 W/m² | - |
| 1778037417 | 20.56° C | 75% | 1006.1 hPa | 0 mm | 2.68 m/s, 7° | 0 W/m² | - |
| 1778037114 | 20.56° C | 74% | 1006 hPa | 0 mm | 4.02 m/s, 354° | 0 W/m² | - |
* Rain latest hour (hover to see other rain measurements)
** Current wind speed in m/s (hover to see current wind gust speed)